sensor_id;sensor_type;location;lat;lon;timestamp;pressure;altitude;pressure_sealevel;temperature;humidity
14343;BME280;7255;53.596;9.960;2022-10-03T00:00:39;101837.44;;;11.01;nan
14343;BME280;7255;53.596;9.960;2022-10-03T00:03:21;101848.22;;;11.01;nan
14343;BME280;7255;53.596;9.960;2022-10-03T00:06:05;101849.41;;;10.98;nan
14343;BME280;7255;53.596;9.960;2022-10-03T00:08:55;101854.41;;;11.02;nan
14343;BME280;7255;53.596;9.960;2022-10-03T00:11:33;101849.41;;;10.98;nan
14343;BME280;7255;53.596;9.960;2022-10-03T00:14:11;101853.94;;;10.91;nan
14343;BME280;7255;53.596;9.960;2022-10-03T00:16:47;101857.69;;;10.97;nan
14343;BME280;7255;53.596;9.960;2022-10-03T00:19:24;101858.97;;;11.01;nan
14343;BME280;7255;53.596;9.960;2022-10-03T00:22:02;101865.56;;;10.98;nan
14343;BME280;7255;53.596;9.960;2022-10-03T00:24:43;101874.25;;;11.01;nan
14343;BME280;7255;53.596;9.960;2022-10-03T00:27:17;101870.16;;;11.05;nan
14343;BME280;7255;53.596;9.960;2022-10-03T00:30:00;101864.72;;;10.98;nan
14343;BME280;7255;53.596;9.960;2022-10-03T00:32:45;101875.88;;;10.95;nan
14343;BME280;7255;53.596;9.960;2022-10-03T00:35:28;101866.41;;;10.99;nan
14343;BME280;7255;53.596;9.960;2022-10-03T00:38:11;101883.75;;;10.96;nan
14343;BME280;7255;53.596;9.960;2022-10-03T00:41:07;101871.38;;;11.02;nan
14343;BME280;7255;53.596;9.960;2022-10-03T00:47:01;101880.56;;;11.21;nan
14343;BME280;7255;53.596;9.960;2022-10-03T00:49:51;101885.53;;;11.24;nan
14343;BME280;7255;53.596;9.960;2022-10-03T00:52:32;101888.44;;;11.29;nan
14343;BME280;7255;53.596;9.960;2022-10-03T00:55:13;101887.63;;;11.29;nan
14343;BME280;7255;53.596;9.960;2022-10-03T00:57:57;101874.03;;;11.44;nan
14343;BME280;7255;53.596;9.960;2022-10-03T01:00:27;101880.66;;;11.48;nan
14343;BME280;7255;53.596;9.960;2022-10-03T01:03:23;101883.09;;;11.43;nan
14343;BME280;7255;53.596;9.960;2022-10-03T01:06:04;101885.19;;;11.41;nan
14343;BME280;7255;53.596;9.960;2022-10-03T01:08:56;101888.53;;;11.49;nan
14343;BME280;7255;53.596;9.960;2022-10-03T01:11:38;101891.00;;;11.44;nan
14343;BME280;7255;53.596;9.960;2022-10-03T01:14:19;101890.19;;;11.50;nan
14343;BME280;7255;53.596;9.960;2022-10-03T01:16:58;101886.03;;;11.48;nan
14343;BME280;7255;53.596;9.960;2022-10-03T01:22:38;101898.91;;;11.59;nan
14343;BME280;7255;53.596;9.960;2022-10-03T01:25:11;101903.47;;;11.59;nan
14343;BME280;7255;53.596;9.960;2022-10-03T01:27:49;101905.56;;;11.70;nan
14343;BME280;7255;53.596;9.960;2022-10-03T01:30:44;101910.53;;;11.73;nan
14343;BME280;7255;53.596;9.960;2022-10-03T01:33:17;101906.38;;;11.64;nan
14343;BME280;7255;53.596;9.960;2022-10-03T01:35:53;101910.09;;;11.56;nan
14343;BME280;7255;53.596;9.960;2022-10-03T01:38:26;101906.78;;;11.54;nan
14343;BME280;7255;53.596;9.960;2022-10-03T01:41:00;101894.75;;;11.56;nan
14343;BME280;7255;53.596;9.960;2022-10-03T01:43:33;101903.00;;;11.48;nan
14343;BME280;7255;53.596;9.960;2022-10-03T01:46:08;101909.59;;;11.39;nan
14343;BME280;7255;53.596;9.960;2022-10-03T01:48:42;101918.25;;;11.28;nan
14343;BME280;7255;53.596;9.960;2022-10-03T01:51:15;101928.56;;;11.24;nan
14343;BME280;7255;53.596;9.960;2022-10-03T01:53:56;101915.75;;;11.26;nan
14343;BME280;7255;53.596;9.960;2022-10-03T01:56:31;101924.03;;;11.25;nan
14343;BME280;7255;53.596;9.960;2022-10-03T01:59:04;101924.44;;;11.22;nan
14343;BME280;7255;53.596;9.960;2022-10-03T02:01:41;101932.28;;;11.16;nan
14343;BME280;7255;53.596;9.960;2022-10-03T02:04:14;101935.13;;;11.08;nan
14343;BME280;7255;53.596;9.960;2022-10-03T02:06:50;101924.38;;;11.08;nan
14343;BME280;7255;53.596;9.960;2022-10-03T02:09:28;101933.84;;;11.04;nan
14343;BME280;7255;53.596;9.960;2022-10-03T02:12:04;101932.59;;;11.00;nan
14343;BME280;7255;53.596;9.960;2022-10-03T02:14:40;101927.22;;;11.00;nan
14343;BME280;7255;53.596;9.960;2022-10-03T02:17:21;101927.59;;;10.97;nan
14343;BME280;7255;53.596;9.960;2022-10-03T02:19:59;101929.66;;;10.95;nan
14343;BME280;7255;53.596;9.960;2022-10-03T02:22:30;101939.97;;;10.91;nan
14343;BME280;7255;53.596;9.960;2022-10-03T02:25:07;101935.47;;;10.92;nan
14343;BME280;7255;53.596;9.960;2022-10-03T02:28:12;101947.84;;;10.86;nan
14343;BME280;7255;53.596;9.960;2022-10-03T02:30:55;101951.53;;;10.85;nan
14343;BME280;7255;53.596;9.960;2022-10-03T02:33:59;101953.97;;;10.80;nan
14343;BME280;7255;53.596;9.960;2022-10-03T02:36:52;101953.53;;;10.76;nan
14343;BME280;7255;53.596;9.960;2022-10-03T02:40:09;101952.28;;;10.72;nan
14343;BME280;7255;53.596;9.960;2022-10-03T02:46:03;101956.81;;;10.72;nan
14343;BME280;7255;53.596;9.960;2022-10-03T02:49:17;101943.97;;;10.67;nan
14343;BME280;7255;53.596;9.960;2022-10-03T02:52:12;101953.06;;;10.66;nan
14343;BME280;7255;53.596;9.960;2022-10-03T02:54:55;101957.38;;;10.61;nan
14343;BME280;7255;53.596;9.960;2022-10-03T03:01:02;101963.31;;;10.56;nan
14343;BME280;7255;53.596;9.960;2022-10-03T03:03:50;101968.69;;;10.56;nan
14343;BME280;7255;53.596;9.960;2022-10-03T03:12:31;101967.72;;;10.42;nan
14343;BME280;7255;53.596;9.960;2022-10-03T03:18:16;101975.59;;;10.44;nan
14343;BME280;7255;53.596;9.960;2022-10-03T03:21:01;101975.22;;;10.47;nan
14343;BME280;7255;53.596;9.960;2022-10-03T03:26:43;101983.91;;;10.49;nan
14343;BME280;7255;53.596;9.960;2022-10-03T03:29:20;101979.69;;;10.39;nan
14343;BME280;7255;53.596;9.960;2022-10-03T03:31:54;101987.91;;;10.31;nan
14343;BME280;7255;53.596;9.960;2022-10-03T03:34:30;101980.94;;;10.37;nan
14343;BME280;7255;53.596;9.960;2022-10-03T03:37:03;101994.59;;;10.42;nan
14343;BME280;7255;53.596;9.960;2022-10-03T03:39:46;101998.25;;;10.34;nan
14343;BME280;7255;53.596;9.960;2022-10-03T03:42:34;101991.69;;;10.37;nan
14343;BME280;7255;53.596;9.960;2022-10-03T03:45:24;101983.81;;;10.35;nan
14343;BME280;7255;53.596;9.960;2022-10-03T03:48:16;101987.91;;;10.31;nan
14343;BME280;7255;53.596;9.960;2022-10-03T03:51:03;101992.34;;;10.24;nan
14343;BME280;7255;53.596;9.960;2022-10-03T03:56:55;101991.56;;;10.30;nan
14343;BME280;7255;53.596;9.960;2022-10-03T03:59:38;101993.53;;;10.21;nan
14343;BME280;7255;53.596;9.960;2022-10-03T04:02:16;101983.25;;;10.25;nan
14343;BME280;7255;53.596;9.960;2022-10-03T04:04:58;101991.72;;;10.22;nan
14343;BME280;7255;53.596;9.960;2022-10-03T04:07:35;101992.72;;;10.21;nan
14343;BME280;7255;53.596;9.960;2022-10-03T04:10:16;101985.63;;;10.13;nan
14343;BME280;7255;53.596;9.960;2022-10-03T04:13:11;101994.31;;;10.15;nan
14343;BME280;7255;53.596;9.960;2022-10-03T04:16:07;101993.88;;;10.12;nan
14343;BME280;7255;53.596;9.960;2022-10-03T04:18:50;101997.56;;;10.11;nan
14343;BME280;7255;53.596;9.960;2022-10-03T04:21:34;102005.91;;;10.16;nan
14343;BME280;7255;53.596;9.960;2022-10-03T04:24:16;102002.13;;;10.10;nan
14343;BME280;7255;53.596;9.960;2022-10-03T04:26:58;102003.41;;;10.14;nan
14343;BME280;7255;53.596;9.960;2022-10-03T04:29:41;102004.62;;;10.12;nan
14343;BME280;7255;53.596;9.960;2022-10-03T04:32:17;102010.00;;;10.12;nan
14343;BME280;7255;53.596;9.960;2022-10-03T04:34:56;102017.00;;;10.13;nan
14343;BME280;7255;53.596;9.960;2022-10-03T04:37:38;102012.03;;;10.10;nan
14343;BME280;7255;53.596;9.960;2022-10-03T04:40:22;102007.50;;;10.10;nan
14343;BME280;7255;53.596;9.960;2022-10-03T04:42:58;102024.06;;;10.14;nan
14343;BME280;7255;53.596;9.960;2022-10-03T04:45:47;102020.72;;;10.12;nan
14343;BME280;7255;53.596;9.960;2022-10-03T04:48:23;102024.44;;;10.11;nan
14343;BME280;7255;53.596;9.960;2022-10-03T04:51:02;102022.78;;;10.10;nan
14343;BME280;7255;53.596;9.960;2022-10-03T04:53:46;102028.16;;;10.10;nan
14343;BME280;7255;53.596;9.960;2022-10-03T04:56:32;102020.28;;;10.08;nan
14343;BME280;7255;53.596;9.960;2022-10-03T04:59:03;102027.69;;;10.06;nan
14343;BME280;7255;53.596;9.960;2022-10-03T05:01:42;102024.81;;;10.08;nan
14343;BME280;7255;53.596;9.960;2022-10-03T05:04:21;102030.19;;;10.08;nan
14343;BME280;7255;53.596;9.960;2022-10-03T05:06:59;102024.44;;;10.11;nan
14343;BME280;7255;53.596;9.960;2022-10-03T05:09:36;102030.19;;;10.08;nan
14343;BME280;7255;53.596;9.960;2022-10-03T05:12:11;102032.25;;;10.06;nan
14343;BME280;7255;53.596;9.960;2022-10-03T05:14:50;102034.72;;;10.07;nan
14343;BME280;7255;53.596;9.960;2022-10-03T05:17:21;102035.38;;;10.09;nan
14343;BME280;7255;53.596;9.960;2022-10-03T05:20:00;102047.13;;;10.08;nan
14343;BME280;7255;53.596;9.960;2022-10-03T05:22:37;102052.97;;;10.12;nan
14343;BME280;7255;53.596;9.960;2022-10-03T05:25:19;102051.69;;;10.08;nan
14343;BME280;7255;53.596;9.960;2022-10-03T05:27:52;102052.50;;;10.08;nan
14343;BME280;7255;53.596;9.960;2022-10-03T05:30:25;102050.47;;;10.10;nan
14343;BME280;7255;53.596;9.960;2022-10-03T05:33:03;102053.72;;;10.06;nan
14343;BME280;7255;53.596;9.960;2022-10-03T05:35:45;102054.59;;;10.13;nan
14343;BME280;7255;53.596;9.960;2022-10-03T05:38:33;102054.59;;;10.13;nan
14343;BME280;7255;53.596;9.960;2022-10-03T05:41:09;102058.78;;;10.15;nan
14343;BME280;7255;53.596;9.960;2022-10-03T05:43:47;102059.16;;;10.12;nan
14343;BME280;7255;53.596;9.960;2022-10-03T05:46:37;102060.44;;;10.16;nan
14343;BME280;7255;53.596;9.960;2022-10-03T05:49:23;102059.25;;;10.19;nan
14343;BME280;7255;53.596;9.960;2022-10-03T05:52:07;102063.00;;;10.25;nan
14343;BME280;7255;53.596;9.960;2022-10-03T05:54:55;102063.84;;;10.25;nan
14343;BME280;7255;53.596;9.960;2022-10-03T05:57:41;102077.53;;;10.30;nan
14343;BME280;7255;53.596;9.960;2022-10-03T06:00:18;102078.03;;;10.34;nan
14343;BME280;7255;53.596;9.960;2022-10-03T06:03:01;102080.06;;;10.32;nan
14343;BME280;7255;53.596;9.960;2022-10-03T06:05:53;102076.88;;;10.43;nan
14343;BME280;7255;53.596;9.960;2022-10-03T06:11:58;102083.97;;;10.51;nan
14343;BME280;7255;53.596;9.960;2022-10-03T06:14:56;102077.00;;;10.56;nan
14343;BME280;7255;53.596;9.960;2022-10-03T06:17:51;102084.13;;;10.64;nan
14343;BME280;7255;53.596;9.960;2022-10-03T06:23:57;102081.69;;;10.69;nan
14343;BME280;7255;53.596;9.960;2022-10-03T06:26:45;102076.81;;;10.79;nan
14343;BME280;7255;53.596;9.960;2022-10-03T06:29:40;102086.88;;;10.92;nan
14343;BME280;7255;53.596;9.960;2022-10-03T06:32:39;102094.78;;;11.01;nan
14343;BME280;7255;53.596;9.960;2022-10-03T06:35:53;102099.22;;;11.08;nan
14343;BME280;7255;53.596;9.960;2022-10-03T06:38:44;102098.22;;;11.16;nan
14343;BME280;7255;53.596;9.960;2022-10-03T06:41:48;102105.41;;;11.37;nan
14343;BME280;7255;53.596;9.960;2022-10-03T06:44:33;102105.91;;;11.47;nan
14343;BME280;7255;53.596;9.960;2022-10-03T06:47:21;102099.78;;;11.60;nan
14343;BME280;7255;53.596;9.960;2022-10-03T06:50:19;102117.63;;;11.68;nan
14343;BME280;7255;53.596;9.960;2022-10-03T06:53:16;102123.88;;;11.75;nan
14343;BME280;7255;53.596;9.960;2022-10-03T06:55:52;102119.75;;;11.79;nan
14343;BME280;7255;53.596;9.960;2022-10-03T06:58:52;102122.69;;;11.84;nan
14343;BME280;7255;53.596;9.960;2022-10-03T07:01:59;102122.19;;;11.74;nan
14343;BME280;7255;53.596;9.960;2022-10-03T07:04:42;102119.72;;;11.72;nan
14343;BME280;7255;53.596;9.960;2022-10-03T07:07:40;102123.50;;;11.78;nan
14343;BME280;7255;53.596;9.960;2022-10-03T07:10:28;102127.69;;;11.87;nan
14343;BME280;7255;53.596;9.960;2022-10-03T07:16:32;102122.38;;;12.01;nan
14343;BME280;7255;53.596;9.960;2022-10-03T07:19:21;102121.66;;;12.20;nan
14343;BME280;7255;53.596;9.960;2022-10-03T07:25:34;102115.03;;;12.29;nan
14343;BME280;7255;53.596;9.960;2022-10-03T07:28:36;102122.91;;;12.24;nan
14343;BME280;7255;53.596;9.960;2022-10-03T07:31:22;102122.50;;;12.34;nan
14343;BME280;7255;53.596;9.960;2022-10-03T07:37:09;102139.56;;;12.48;nan
14343;BME280;7255;53.596;9.960;2022-10-03T07:43:33;102142.84;;;12.43;nan
14343;BME280;7255;53.596;9.960;2022-10-03T07:46:43;102153.66;;;12.50;nan
14343;BME280;7255;53.596;9.960;2022-10-03T07:49:27;102149.97;;;12.51;nan
14343;BME280;7255;53.596;9.960;2022-10-03T07:52:34;102154.12;;;12.67;nan
14343;BME280;7255;53.596;9.960;2022-10-03T07:55:24;102147.09;;;12.73;nan
14343;BME280;7255;53.596;9.960;2022-10-03T07:58:08;102165.34;;;12.84;nan
14343;BME280;7255;53.596;9.960;2022-10-03T08:00:49;102155.44;;;12.98;nan
14343;BME280;7255;53.596;9.960;2022-10-03T08:06:30;102167.06;;;13.12;nan
14343;BME280;7255;53.596;9.960;2022-10-03T08:09:15;102168.31;;;13.22;nan
14343;BME280;7255;53.596;9.960;2022-10-03T08:12:26;102171.66;;;13.31;nan
14343;BME280;7255;53.596;9.960;2022-10-03T08:15:05;102165.00;;;13.40;nan
14343;BME280;7255;53.596;9.960;2022-10-03T08:20:57;102179.97;;;13.63;nan
14343;BME280;7255;53.596;9.960;2022-10-03T08:24:00;102179.75;;;13.71;nan
14343;BME280;7255;53.596;9.960;2022-10-03T08:26:48;102164.97;;;13.80;nan
14343;BME280;7255;53.596;9.960;2022-10-03T08:29:50;102178.63;;;13.99;nan
14343;BME280;7255;53.596;9.960;2022-10-03T08:32:38;102173.25;;;13.92;nan
14343;BME280;7255;53.596;9.960;2022-10-03T08:35:29;102168.69;;;13.93;nan
14343;BME280;7255;53.596;9.960;2022-10-03T08:38:19;102177.41;;;14.01;nan
14343;BME280;7255;53.596;9.960;2022-10-03T08:41:24;102179.41;;;14.19;nan
14343;BME280;7255;53.596;9.960;2022-10-03T08:44:25;102194.72;;;14.32;nan
14343;BME280;7255;53.596;9.960;2022-10-03T08:47:38;102186.81;;;14.44;nan
14343;BME280;7255;53.596;9.960;2022-10-03T08:50:25;102185.91;;;14.63;nan
14343;BME280;7255;53.596;9.960;2022-10-03T08:53:24;102183.31;;;14.82;nan
14343;BME280;7255;53.596;9.960;2022-10-03T08:55:59;102191.50;;;15.00;nan
14343;BME280;7255;53.596;9.960;2022-10-03T08:59:03;102196.56;;;14.90;nan
14343;BME280;7255;53.596;9.960;2022-10-03T09:01:49;102198.47;;;14.83;nan
14343;BME280;7255;53.596;9.960;2022-10-03T09:04:49;102198.63;;;14.95;nan
14343;BME280;7255;53.596;9.960;2022-10-03T09:07:41;102207.34;;;14.97;nan
14343;BME280;7255;53.596;9.960;2022-10-03T09:10:35;102203.13;;;15.08;nan
14343;BME280;7255;53.596;9.960;2022-10-03T09:16:31;102204.22;;;15.25;nan
14343;BME280;7255;53.596;9.960;2022-10-03T09:19:16;102201.34;;;15.20;nan
14343;BME280;7255;53.596;9.960;2022-10-03T09:22:06;102201.97;;;14.90;nan
14343;BME280;7255;53.596;9.960;2022-10-03T09:25:06;102202.38;;;14.94;nan
14343;BME280;7255;53.596;9.960;2022-10-03T09:28:04;102206.91;;;15.00;nan
14343;BME280;7255;53.596;9.960;2022-10-03T09:30:46;102200.13;;;15.16;nan
14343;BME280;7255;53.596;9.960;2022-10-03T09:33:53;102212.41;;;15.44;nan
14343;BME280;7255;53.596;9.960;2022-10-03T09:36:53;102213.56;;;15.54;nan
14343;BME280;7255;53.596;9.960;2022-10-03T09:39:57;102218.22;;;15.47;nan
14343;BME280;7255;53.596;9.960;2022-10-03T09:42:38;102203.81;;;15.28;nan
14343;BME280;7255;53.596;9.960;2022-10-03T09:45:23;102208.00;;;15.24;nan
14343;BME280;7255;53.596;9.960;2022-10-03T09:48:08;102204.62;;;15.29;nan
14343;BME280;7255;53.596;9.960;2022-10-03T09:54:18;102211.00;;;15.66;nan
14343;BME280;7255;53.596;9.960;2022-10-03T09:57:02;102207.88;;;15.88;nan
14343;BME280;7255;53.596;9.960;2022-10-03T09:59:53;102198.00;;;15.75;nan
14343;BME280;7255;53.596;9.960;2022-10-03T10:02:50;102210.91;;;15.73;nan
14343;BME280;7255;53.596;9.960;2022-10-03T10:08:39;102206.97;;;15.75;nan
14343;BME280;7255;53.596;9.960;2022-10-03T10:11:22;102208.78;;;15.82;nan
14343;BME280;7255;53.596;9.960;2022-10-03T10:14:21;102204.72;;;16.09;nan
14343;BME280;7255;53.596;9.960;2022-10-03T10:17:09;102197.13;;;16.18;nan
14343;BME280;7255;53.596;9.960;2022-10-03T10:19:53;102193.94;;;16.40;nan
14343;BME280;7255;53.596;9.960;2022-10-03T10:22:57;102189.03;;;16.30;nan
14343;BME280;7255;53.596;9.960;2022-10-03T10:25:45;102199.41;;;16.03;nan
14343;BME280;7255;53.596;9.960;2022-10-03T10:28:40;102203.97;;;16.02;nan
14343;BME280;7255;53.596;9.960;2022-10-03T10:31:46;102196.16;;;15.94;nan
14343;BME280;7255;53.596;9.960;2022-10-03T10:35:02;102191.16;;;15.91;nan
14343;BME280;7255;53.596;9.960;2022-10-03T10:38:08;102197.56;;;16.15;nan
14343;BME280;7255;53.596;9.960;2022-10-03T10:41:03;102186.84;;;16.39;nan
14343;BME280;7255;53.596;9.960;2022-10-03T10:47:09;102187.97;;;17.10;nan
14343;BME280;7255;53.596;9.960;2022-10-03T10:56:39;102193.94;;;17.54;nan
14343;BME280;7255;53.596;9.960;2022-10-03T11:03:07;102193.94;;;17.78;nan
14343;BME280;7255;53.596;9.960;2022-10-03T11:06:30;102197.94;;;17.40;nan
14343;BME280;7255;53.596;9.960;2022-10-03T11:12:57;102197.88;;;17.16;nan
14343;BME280;7255;53.596;9.960;2022-10-03T11:22:09;102187.91;;;15.82;nan
14343;BME280;7255;53.596;9.960;2022-10-03T11:25:20;102199.44;;;15.77;nan
14343;BME280;7255;53.596;9.960;2022-10-03T11:31:38;102190.44;;;15.33;nan
14343;BME280;7255;53.596;9.960;2022-10-03T11:37:32;102202.13;;;15.27;nan
14343;BME280;7255;53.596;9.960;2022-10-03T11:40:17;102202.59;;;15.24;nan
14343;BME280;7255;53.596;9.960;2022-10-03T11:42:54;102203.44;;;15.18;nan
14343;BME280;7255;53.596;9.960;2022-10-03T11:45:27;102201.97;;;14.90;nan
14343;BME280;7255;53.596;9.960;2022-10-03T11:48:09;102193.69;;;14.85;nan
14343;BME280;7255;53.596;9.960;2022-10-03T11:50:50;102199.44;;;14.95;nan
14343;BME280;7255;53.596;9.960;2022-10-03T11:53:24;102212.28;;;15.07;nan
14343;BME280;7255;53.596;9.960;2022-10-03T11:56:04;102191.59;;;15.19;nan
14343;BME280;7255;53.596;9.960;2022-10-03T11:58:46;102201.69;;;15.30;nan
14343;BME280;7255;53.596;9.960;2022-10-03T12:01:23;102198.69;;;15.38;nan
14343;BME280;7255;53.596;9.960;2022-10-03T12:03:58;102205.47;;;15.73;nan
14343;BME280;7255;53.596;9.960;2022-10-03T12:06:39;102212.31;;;16.01;nan
14343;BME280;7255;53.596;9.960;2022-10-03T12:09:38;102214.06;;;15.95;nan
14343;BME280;7255;53.596;9.960;2022-10-03T12:12:13;102209.69;;;15.75;nan
14343;BME280;7255;53.596;9.960;2022-10-03T12:14:42;102210.66;;;15.81;nan
14343;BME280;7255;53.596;9.960;2022-10-03T12:17:14;102220.81;;;15.86;nan
14343;BME280;7255;53.596;9.960;2022-10-03T12:19:52;102209.16;;;15.85;nan
14343;BME280;7255;53.596;9.960;2022-10-03T12:22:38;102211.94;;;15.97;nan
14343;BME280;7255;53.596;9.960;2022-10-03T12:25:16;102217.75;;;16.01;nan
14343;BME280;7255;53.596;9.960;2022-10-03T12:27:51;102210.75;;;15.93;nan
14343;BME280;7255;53.596;9.960;2022-10-03T12:30:22;102212.47;;;15.87;nan
14343;BME280;7255;53.596;9.960;2022-10-03T12:33:05;102215.34;;;15.92;nan
14343;BME280;7255;53.596;9.960;2022-10-03T12:35:38;102208.50;;;16.08;nan
14343;BME280;7255;53.596;9.960;2022-10-03T12:38:22;102211.97;;;16.34;nan
14343;BME280;7255;53.596;9.960;2022-10-03T12:40:58;102198.16;;;16.35;nan
14343;BME280;7255;53.596;9.960;2022-10-03T12:43:46;102203.50;;;16.42;nan
14343;BME280;7255;53.596;9.960;2022-10-03T12:46:20;102213.28;;;16.62;nan
14343;BME280;7255;53.596;9.960;2022-10-03T12:48:59;102203.16;;;16.69;nan
14343;BME280;7255;53.596;9.960;2022-10-03T12:51:38;102201.78;;;16.78;nan
14343;BME280;7255;53.596;9.960;2022-10-03T12:54:21;102209.41;;;16.88;nan
14343;BME280;7255;53.596;9.960;2022-10-03T12:57:01;102222.84;;;16.64;nan
14343;BME280;7255;53.596;9.960;2022-10-03T12:59:36;102215.31;;;16.48;nan
14343;BME280;7255;53.596;9.960;2022-10-03T13:02:20;102213.16;;;16.38;nan
14343;BME280;7255;53.596;9.960;2022-10-03T13:05:01;102220.97;;;16.46;nan
14343;BME280;7255;53.596;9.960;2022-10-03T13:07:37;102225.38;;;16.29;nan
14343;BME280;7255;53.596;9.960;2022-10-03T13:10:20;102226.78;;;16.13;nan
14343;BME280;7255;53.596;9.960;2022-10-03T13:12:53;102212.84;;;16.28;nan
14343;BME280;7255;53.596;9.960;2022-10-03T13:16:01;102210.69;;;16.18;nan
14343;BME280;7255;53.596;9.960;2022-10-03T13:18:43;102219.22;;;16.52;nan
14343;BME280;7255;53.596;9.960;2022-10-03T13:21:18;102209.97;;;16.60;nan
14343;BME280;7255;53.596;9.960;2022-10-03T13:23:50;102218.78;;;16.55;nan
14343;BME280;7255;53.596;9.960;2022-10-03T13:26:21;102211.47;;;16.55;nan
14343;BME280;7255;53.596;9.960;2022-10-03T13:29:08;102212.41;;;16.31;nan
14343;BME280;7255;53.596;9.960;2022-10-03T13:31:48;102212.25;;;16.26;nan
14343;BME280;7255;53.596;9.960;2022-10-03T13:34:22;102203.84;;;16.15;nan
14343;BME280;7255;53.596;9.960;2022-10-03T13:36:55;102203.37;;;16.19;nan
14343;BME280;7255;53.596;9.960;2022-10-03T13:39:25;102197.78;;;16.13;nan
14343;BME280;7255;53.596;9.960;2022-10-03T13:42:16;102197.62;;;16.45;nan
14343;BME280;7255;53.596;9.960;2022-10-03T13:44:48;102199.28;;;16.46;nan
14343;BME280;7255;53.596;9.960;2022-10-03T13:47:40;102203.06;;;16.75;nan
14343;BME280;7255;53.596;9.960;2022-10-03T13:50:14;102202.56;;;16.97;nan
14343;BME280;7255;53.596;9.960;2022-10-03T13:52:45;102202.81;;;16.96;nan
14343;BME280;7255;53.596;9.960;2022-10-03T13:55:18;102201.88;;;16.71;nan
14343;BME280;7255;53.596;9.960;2022-10-03T13:57:54;102207.75;;;16.68;nan
14343;BME280;7255;53.596;9.960;2022-10-03T14:00:27;102203.53;;;16.72;nan
14343;BME280;7255;53.596;9.960;2022-10-03T14:03:07;102201.12;;;16.64;nan
14343;BME280;7255;53.596;9.960;2022-10-03T14:06:01;102201.50;;;16.68;nan
14343;BME280;7255;53.596;9.960;2022-10-03T14:11:33;102201.31;;;16.81;nan
14343;BME280;7255;53.596;9.960;2022-10-03T14:14:28;102192.75;;;16.66;nan
14343;BME280;7255;53.596;9.960;2022-10-03T14:17:04;102198.00;;;16.49;nan
14343;BME280;7255;53.596;9.960;2022-10-03T14:19:39;102196.69;;;16.21;nan
14343;BME280;7255;53.596;9.960;2022-10-03T14:22:33;102196.06;;;16.01;nan
14343;BME280;7255;53.596;9.960;2022-10-03T14:25:16;102200.28;;;15.96;nan
14343;BME280;7255;53.596;9.960;2022-10-03T14:27:49;102192.94;;;15.78;nan
14343;BME280;7255;53.596;9.960;2022-10-03T14:30:19;102190.94;;;15.67;nan
14343;BME280;7255;53.596;9.960;2022-10-03T14:32:51;102182.28;;;15.58;nan
14343;BME280;7255;53.596;9.960;2022-10-03T14:35:29;102194.72;;;15.66;nan
14343;BME280;7255;53.596;9.960;2022-10-03T14:38:10;102187.69;;;15.58;nan
14343;BME280;7255;53.596;9.960;2022-10-03T14:40:46;102189.19;;;15.80;nan
14343;BME280;7255;53.596;9.960;2022-10-03T14:43:24;102182.50;;;15.82;nan
14343;BME280;7255;53.596;9.960;2022-10-03T14:45:55;102187.78;;;15.95;nan
14343;BME280;7255;53.596;9.960;2022-10-03T14:48:26;102184.53;;;15.87;nan
14343;BME280;7255;53.596;9.960;2022-10-03T14:50:58;102186.13;;;15.76;nan
14343;BME280;7255;53.596;9.960;2022-10-03T14:53:29;102190.50;;;15.77;nan
14343;BME280;7255;53.596;9.960;2022-10-03T14:56:01;102192.94;;;15.78;nan
14343;BME280;7255;53.596;9.960;2022-10-03T14:58:33;102187.31;;;15.80;nan
14343;BME280;7255;53.596;9.960;2022-10-03T15:01:03;102188.28;;;15.86;nan
14343;BME280;7255;53.596;9.960;2022-10-03T15:03:37;102189.66;;;15.76;nan
14343;BME280;7255;53.596;9.960;2022-10-03T15:06:20;102185.53;;;15.67;nan
14343;BME280;7255;53.596;9.960;2022-10-03T15:08:49;102192.69;;;15.62;nan
14343;BME280;7255;53.596;9.960;2022-10-03T15:11:23;102176.94;;;15.52;nan
14343;BME280;7255;53.596;9.960;2022-10-03T15:13:54;102188.03;;;15.69;nan
14343;BME280;7255;53.596;9.960;2022-10-03T15:16:22;102186.72;;;15.71;nan
14343;BME280;7255;53.596;9.960;2022-10-03T15:18:52;102180.94;;;15.68;nan
14343;BME280;7255;53.596;9.960;2022-10-03T15:21:20;102182.59;;;15.69;nan
14343;BME280;7255;53.596;9.960;2022-10-03T15:23:53;102175.66;;;15.54;nan
14343;BME280;7255;53.596;9.960;2022-10-03T15:26:23;102172.69;;;15.63;nan
14343;BME280;7255;53.596;9.960;2022-10-03T15:28:53;102165.25;;;15.51;nan
14343;BME280;7255;53.596;9.960;2022-10-03T15:31:31;102161.47;;;15.59;nan
14343;BME280;7255;53.596;9.960;2022-10-03T15:33:59;102175.66;;;15.54;nan
14343;BME280;7255;53.596;9.960;2022-10-03T15:36:29;102176.84;;;15.58;nan
14343;BME280;7255;53.596;9.960;2022-10-03T15:38:59;102164.59;;;15.56;nan
14343;BME280;7255;53.596;9.960;2022-10-03T15:41:33;102168.50;;;15.60;nan
14343;BME280;7255;53.596;9.960;2022-10-03T15:44:03;102166.34;;;15.69;nan
14343;BME280;7255;53.596;9.960;2022-10-03T15:46:33;102165.59;;;15.62;nan
14343;BME280;7255;53.596;9.960;2022-10-03T15:49:04;102168.06;;;15.63;nan
14343;BME280;7255;53.596;9.960;2022-10-03T15:51:34;102164.44;;;15.51;nan
14343;BME280;7255;53.596;9.960;2022-10-03T15:54:05;102166.94;;;15.52;nan
14343;BME280;7255;53.596;9.960;2022-10-03T15:56:37;102157.75;;;15.53;nan
14343;BME280;7255;53.596;9.960;2022-10-03T15:59:06;102171.97;;;15.49;nan
14343;BME280;7255;53.596;9.960;2022-10-03T16:01:38;102164.50;;;15.44;nan
14343;BME280;7255;53.596;9.960;2022-10-03T16:04:11;102165.47;;;15.31;nan
14343;BME280;7255;53.596;9.960;2022-10-03T16:06:45;102151.19;;;15.43;nan
14343;BME280;7255;53.596;9.960;2022-10-03T16:09:18;102157.81;;;15.47;nan
14343;BME280;7255;53.596;9.960;2022-10-03T16:11:57;102153.59;;;15.51;nan
14343;BME280;7255;53.596;9.960;2022-10-03T16:14:35;102148.75;;;15.34;nan
14343;BME280;7255;53.596;9.960;2022-10-03T16:17:13;102157.34;;;15.31;nan
14343;BME280;7255;53.596;9.960;2022-10-03T16:19:41;102146.34;;;15.26;nan
14343;BME280;7255;53.596;9.960;2022-10-03T16:22:17;102156.81;;;15.16;nan
14343;BME280;7255;53.596;9.960;2022-10-03T16:24:48;102156.50;;;15.06;nan